sensor_id;sensor_type;location;lat;lon;timestamp;P1;durP1;ratioP1;P2;durP2;ratioP2
55391;SDS011;41262;50.922;6.958;2022-08-19T00:01:15;11.40;;;5.13;;
55391;SDS011;41262;50.922;6.958;2022-08-19T00:03:42;6.07;;;4.47;;
55391;SDS011;41262;50.922;6.958;2022-08-19T00:06:10;7.85;;;4.30;;
55391;SDS011;41262;50.922;6.958;2022-08-19T00:08:37;5.47;;;4.00;;
55391;SDS011;41262;50.922;6.958;2022-08-19T00:11:04;7.47;;;4.07;;
55391;SDS011;41262;50.922;6.958;2022-08-19T00:13:31;5.90;;;4.60;;
55391;SDS011;41262;50.922;6.958;2022-08-19T00:15:58;5.00;;;3.55;;
55391;SDS011;41262;50.922;6.958;2022-08-19T00:18:26;5.28;;;3.90;;
55391;SDS011;41262;50.922;6.958;2022-08-19T00:20:53;7.15;;;4.05;;
55391;SDS011;41262;50.922;6.958;2022-08-19T00:23:20;6.18;;;4.65;;
55391;SDS011;41262;50.922;6.958;2022-08-19T00:25:47;5.63;;;3.90;;
55391;SDS011;41262;50.922;6.958;2022-08-19T00:28:13;7.35;;;3.50;;
55391;SDS011;41262;50.922;6.958;2022-08-19T00:30:41;7.60;;;4.25;;
55391;SDS011;41262;50.922;6.958;2022-08-19T00:33:07;5.32;;;3.88;;
55391;SDS011;41262;50.922;6.958;2022-08-19T00:35:34;5.25;;;4.10;;
55391;SDS011;41262;50.922;6.958;2022-08-19T00:38:01;5.07;;;3.97;;
55391;SDS011;41262;50.922;6.958;2022-08-19T00:40:28;6.22;;;4.75;;
55391;SDS011;41262;50.922;6.958;2022-08-19T00:42:56;6.22;;;3.72;;
55391;SDS011;41262;50.922;6.958;2022-08-19T00:45:26;7.85;;;4.30;;
55391;SDS011;41262;50.922;6.958;2022-08-19T00:47:53;8.57;;;4.20;;
55391;SDS011;41262;50.922;6.958;2022-08-19T00:50:20;6.40;;;4.20;;
55391;SDS011;41262;50.922;6.958;2022-08-19T00:52:48;7.13;;;4.90;;
55391;SDS011;41262;50.922;6.958;2022-08-19T00:55:16;9.38;;;4.43;;
55391;SDS011;41262;50.922;6.958;2022-08-19T00:57:49;6.57;;;4.55;;
55391;SDS011;41262;50.922;6.958;2022-08-19T01:00:18;5.90;;;4.30;;
55391;SDS011;41262;50.922;6.958;2022-08-19T01:02:45;6.47;;;4.25;;
55391;SDS011;41262;50.922;6.958;2022-08-19T01:05:14;6.55;;;4.43;;
55391;SDS011;41262;50.922;6.958;2022-08-19T01:07:42;7.95;;;4.95;;
55391;SDS011;41262;50.922;6.958;2022-08-19T01:10:10;7.05;;;4.95;;
55391;SDS011;41262;50.922;6.958;2022-08-19T01:12:38;12.93;;;4.45;;
55391;SDS011;41262;50.922;6.958;2022-08-19T01:15:06;7.05;;;4.50;;
55391;SDS011;41262;50.922;6.958;2022-08-19T01:17:33;7.88;;;4.57;;
55391;SDS011;41262;50.922;6.958;2022-08-19T01:20:02;6.53;;;4.43;;
55391;SDS011;41262;50.922;6.958;2022-08-19T01:22:31;6.13;;;4.50;;
55391;SDS011;41262;50.922;6.958;2022-08-19T01:24:59;7.20;;;4.35;;
55391;SDS011;41262;50.922;6.958;2022-08-19T01:27:26;5.70;;;4.25;;
55391;SDS011;41262;50.922;6.958;2022-08-19T01:29:52;6.88;;;4.50;;
55391;SDS011;41262;50.922;6.958;2022-08-19T01:32:19;9.30;;;4.65;;
55391;SDS011;41262;50.922;6.958;2022-08-19T01:34:46;5.88;;;4.32;;
55391;SDS011;41262;50.922;6.958;2022-08-19T01:37:14;9.63;;;4.60;;
55391;SDS011;41262;50.922;6.958;2022-08-19T01:39:41;7.50;;;4.53;;
55391;SDS011;41262;50.922;6.958;2022-08-19T01:42:07;6.72;;;4.47;;
55391;SDS011;41262;50.922;6.958;2022-08-19T01:44:38;6.07;;;3.95;;
55391;SDS011;41262;50.922;6.958;2022-08-19T01:47:06;6.75;;;4.15;;
55391;SDS011;41262;50.922;6.958;2022-08-19T01:49:33;9.55;;;4.78;;
55391;SDS011;41262;50.922;6.958;2022-08-19T01:52:00;7.07;;;4.60;;
55391;SDS011;41262;50.922;6.958;2022-08-19T01:54:27;6.20;;;4.20;;
55391;SDS011;41262;50.922;6.958;2022-08-19T01:56:59;7.30;;;4.78;;
55391;SDS011;41262;50.922;6.958;2022-08-19T01:59:26;9.67;;;4.60;;
55391;SDS011;41262;50.922;6.958;2022-08-19T02:01:53;7.22;;;4.18;;
55391;SDS011;41262;50.922;6.958;2022-08-19T02:04:20;6.78;;;4.70;;
55391;SDS011;41262;50.922;6.958;2022-08-19T02:06:47;6.88;;;4.10;;
55391;SDS011;41262;50.922;6.958;2022-08-19T02:09:14;9.48;;;4.60;;
55391;SDS011;41262;50.922;6.958;2022-08-19T02:11:42;11.23;;;4.90;;
55391;SDS011;41262;50.922;6.958;2022-08-19T02:14:09;8.32;;;4.25;;
55391;SDS011;41262;50.922;6.958;2022-08-19T02:16:36;8.48;;;4.85;;
55391;SDS011;41262;50.922;6.958;2022-08-19T02:19:03;6.18;;;4.75;;
55391;SDS011;41262;50.922;6.958;2022-08-19T02:21:30;8.43;;;4.97;;
55391;SDS011;41262;50.922;6.958;2022-08-19T02:23:57;9.32;;;5.05;;
55391;SDS011;41262;50.922;6.958;2022-08-19T02:26:24;8.02;;;4.57;;
55391;SDS011;41262;50.922;6.958;2022-08-19T02:28:52;9.10;;;5.55;;
55391;SDS011;41262;50.922;6.958;2022-08-19T02:31:22;12.05;;;5.25;;
55391;SDS011;41262;50.922;6.958;2022-08-19T02:33:50;9.82;;;4.55;;
55391;SDS011;41262;50.922;6.958;2022-08-19T02:36:18;5.53;;;4.28;;
55391;SDS011;41262;50.922;6.958;2022-08-19T02:38:45;7.43;;;4.38;;
55391;SDS011;41262;50.922;6.958;2022-08-19T02:41:18;7.70;;;4.65;;
55391;SDS011;41262;50.922;6.958;2022-08-19T02:43:45;6.85;;;4.80;;
55391;SDS011;41262;50.922;6.958;2022-08-19T02:46:16;10.27;;;4.82;;
55391;SDS011;41262;50.922;6.958;2022-08-19T02:48:44;9.32;;;4.43;;
55391;SDS011;41262;50.922;6.958;2022-08-19T02:51:15;10.05;;;5.10;;
55391;SDS011;41262;50.922;6.958;2022-08-19T02:53:42;9.15;;;4.80;;
55391;SDS011;41262;50.922;6.958;2022-08-19T02:56:08;6.57;;;4.53;;
55391;SDS011;41262;50.922;6.958;2022-08-19T02:58:35;9.27;;;5.05;;
55391;SDS011;41262;50.922;6.958;2022-08-19T03:01:02;9.38;;;5.88;;
55391;SDS011;41262;50.922;6.958;2022-08-19T03:03:28;9.27;;;5.03;;
55391;SDS011;41262;50.922;6.958;2022-08-19T03:06:06;8.60;;;5.05;;
55391;SDS011;41262;50.922;6.958;2022-08-19T03:08:33;9.23;;;5.15;;
55391;SDS011;41262;50.922;6.958;2022-08-19T03:11:00;7.50;;;4.78;;
55391;SDS011;41262;50.922;6.958;2022-08-19T03:13:27;8.65;;;5.25;;
55391;SDS011;41262;50.922;6.958;2022-08-19T03:15:54;11.45;;;5.32;;
55391;SDS011;41262;50.922;6.958;2022-08-19T03:18:21;8.40;;;5.70;;
55391;SDS011;41262;50.922;6.958;2022-08-19T03:20:49;9.35;;;5.57;;
55391;SDS011;41262;50.922;6.958;2022-08-19T03:23:16;9.50;;;6.43;;
55391;SDS011;41262;50.922;6.958;2022-08-19T03:25:44;7.47;;;5.35;;
55391;SDS011;41262;50.922;6.958;2022-08-19T03:28:12;9.77;;;5.55;;
55391;SDS011;41262;50.922;6.958;2022-08-19T03:30:39;9.18;;;5.65;;
55391;SDS011;41262;50.922;6.958;2022-08-19T03:33:07;7.45;;;5.28;;
55391;SDS011;41262;50.922;6.958;2022-08-19T03:35:35;9.57;;;4.93;;
55391;SDS011;41262;50.922;6.958;2022-08-19T03:38:05;10.00;;;5.72;;
55391;SDS011;41262;50.922;6.958;2022-08-19T03:40:35;8.40;;;5.70;;
55391;SDS011;41262;50.922;6.958;2022-08-19T03:43:03;9.63;;;5.80;;
55391;SDS011;41262;50.922;6.958;2022-08-19T03:45:29;7.45;;;5.53;;
55391;SDS011;41262;50.922;6.958;2022-08-19T03:47:56;8.65;;;5.90;;
55391;SDS011;41262;50.922;6.958;2022-08-19T03:50:22;9.25;;;5.18;;
55391;SDS011;41262;50.922;6.958;2022-08-19T03:52:50;8.65;;;5.15;;
55391;SDS011;41262;50.922;6.958;2022-08-19T03:55:18;10.30;;;6.28;;
55391;SDS011;41262;50.922;6.958;2022-08-19T03:57:46;9.98;;;6.50;;
55391;SDS011;41262;50.922;6.958;2022-08-19T04:00:15;10.18;;;6.00;;
55391;SDS011;41262;50.922;6.958;2022-08-19T04:02:42;13.63;;;6.22;;
55391;SDS011;41262;50.922;6.958;2022-08-19T04:05:09;13.98;;;6.55;;
55391;SDS011;41262;50.922;6.958;2022-08-19T04:07:36;8.38;;;5.50;;
55391;SDS011;41262;50.922;6.958;2022-08-19T04:10:03;12.68;;;6.40;;
55391;SDS011;41262;50.922;6.958;2022-08-19T04:12:30;13.02;;;7.82;;
55391;SDS011;41262;50.922;6.958;2022-08-19T04:14:56;11.40;;;6.53;;
55391;SDS011;41262;50.922;6.958;2022-08-19T04:17:24;14.00;;;6.93;;
55391;SDS011;41262;50.922;6.958;2022-08-19T04:19:52;10.57;;;6.32;;
55391;SDS011;41262;50.922;6.958;2022-08-19T04:22:18;10.27;;;6.22;;
55391;SDS011;41262;50.922;6.958;2022-08-19T04:24:45;10.55;;;5.95;;
55391;SDS011;41262;50.922;6.958;2022-08-19T04:27:12;8.68;;;5.57;;
55391;SDS011;41262;50.922;6.958;2022-08-19T04:29:39;11.15;;;6.47;;
55391;SDS011;41262;50.922;6.958;2022-08-19T04:32:06;11.07;;;6.18;;
55391;SDS011;41262;50.922;6.958;2022-08-19T04:34:33;13.25;;;7.13;;
55391;SDS011;41262;50.922;6.958;2022-08-19T04:37:00;13.82;;;6.93;;
55391;SDS011;41262;50.922;6.958;2022-08-19T04:39:28;15.20;;;6.57;;
55391;SDS011;41262;50.922;6.958;2022-08-19T04:42:15;16.67;;;7.63;;
55391;SDS011;41262;50.922;6.958;2022-08-19T04:45:02;13.75;;;7.65;;
55391;SDS011;41262;50.922;6.958;2022-08-19T04:47:31;10.73;;;7.00;;
55391;SDS011;41262;50.922;6.958;2022-08-19T04:49:59;11.75;;;7.35;;
55391;SDS011;41262;50.922;6.958;2022-08-19T04:52:26;10.68;;;7.00;;
55391;SDS011;41262;50.922;6.958;2022-08-19T04:54:53;14.27;;;7.82;;
55391;SDS011;41262;50.922;6.958;2022-08-19T04:57:21;16.05;;;9.77;;
55391;SDS011;41262;50.922;6.958;2022-08-19T04:59:48;13.75;;;6.68;;
55391;SDS011;41262;50.922;6.958;2022-08-19T05:02:14;14.43;;;7.63;;
55391;SDS011;41262;50.922;6.958;2022-08-19T05:04:41;11.70;;;7.57;;
55391;SDS011;41262;50.922;6.958;2022-08-19T05:07:08;12.60;;;7.35;;
55391;SDS011;41262;50.922;6.958;2022-08-19T05:09:36;11.70;;;8.05;;
55391;SDS011;41262;50.922;6.958;2022-08-19T05:12:03;14.43;;;8.48;;
55391;SDS011;41262;50.922;6.958;2022-08-19T05:14:32;12.48;;;7.55;;
55391;SDS011;41262;50.922;6.958;2022-08-19T05:17:00;14.82;;;8.07;;
55391;SDS011;41262;50.922;6.958;2022-08-19T05:19:49;16.65;;;8.68;;
55391;SDS011;41262;50.922;6.958;2022-08-19T05:22:34;14.77;;;9.10;;
55391;SDS011;41262;50.922;6.958;2022-08-19T05:25:03;14.95;;;8.80;;
55391;SDS011;41262;50.922;6.958;2022-08-19T05:27:37;16.02;;;10.00;;
55391;SDS011;41262;50.922;6.958;2022-08-19T05:30:04;14.07;;;9.75;;
55391;SDS011;41262;50.922;6.958;2022-08-19T05:32:31;19.92;;;11.18;;
55391;SDS011;41262;50.922;6.958;2022-08-19T05:34:58;18.90;;;9.63;;
55391;SDS011;41262;50.922;6.958;2022-08-19T05:37:25;17.67;;;10.45;;
55391;SDS011;41262;50.922;6.958;2022-08-19T05:39:53;17.13;;;10.20;;
55391;SDS011;41262;50.922;6.958;2022-08-19T05:42:20;19.55;;;10.68;;
55391;SDS011;41262;50.922;6.958;2022-08-19T05:44:49;20.80;;;10.98;;
55391;SDS011;41262;50.922;6.958;2022-08-19T05:47:17;20.50;;;9.15;;
55391;SDS011;41262;50.922;6.958;2022-08-19T05:49:46;16.42;;;10.88;;
55391;SDS011;41262;50.922;6.958;2022-08-19T05:52:13;16.83;;;10.15;;
55391;SDS011;41262;50.922;6.958;2022-08-19T05:54:42;21.65;;;10.75;;
55391;SDS011;41262;50.922;6.958;2022-08-19T05:57:09;17.17;;;9.90;;
55391;SDS011;41262;50.922;6.958;2022-08-19T05:59:36;18.33;;;11.52;;
55391;SDS011;41262;50.922;6.958;2022-08-19T06:02:03;16.92;;;10.15;;
55391;SDS011;41262;50.922;6.958;2022-08-19T06:04:30;21.67;;;10.35;;
55391;SDS011;41262;50.922;6.958;2022-08-19T06:06:57;18.67;;;10.15;;
55391;SDS011;41262;50.922;6.958;2022-08-19T06:09:24;19.17;;;10.77;;
55391;SDS011;41262;50.922;6.958;2022-08-19T06:11:55;20.25;;;9.93;;
55391;SDS011;41262;50.922;6.958;2022-08-19T06:14:30;21.88;;;11.52;;
55391;SDS011;41262;50.922;6.958;2022-08-19T06:16:57;19.48;;;10.80;;
55391;SDS011;41262;50.922;6.958;2022-08-19T06:19:29;19.38;;;9.70;;
55391;SDS011;41262;50.922;6.958;2022-08-19T06:21:57;18.88;;;10.23;;
55391;SDS011;41262;50.922;6.958;2022-08-19T06:24:25;19.65;;;10.95;;
55391;SDS011;41262;50.922;6.958;2022-08-19T06:26:53;20.17;;;11.18;;
55391;SDS011;41262;50.922;6.958;2022-08-19T06:29:22;17.75;;;10.88;;
55391;SDS011;41262;50.922;6.958;2022-08-19T06:31:55;19.52;;;11.02;;
55391;SDS011;41262;50.922;6.958;2022-08-19T06:34:23;20.85;;;11.32;;
55391;SDS011;41262;50.922;6.958;2022-08-19T06:36:50;22.27;;;10.60;;
55391;SDS011;41262;50.922;6.958;2022-08-19T06:39:20;16.88;;;8.80;;
55391;SDS011;41262;50.922;6.958;2022-08-19T06:41:48;26.50;;;10.52;;
55391;SDS011;41262;50.922;6.958;2022-08-19T06:44:18;16.85;;;9.52;;
55391;SDS011;41262;50.922;6.958;2022-08-19T06:46:45;18.10;;;10.23;;
55391;SDS011;41262;50.922;6.958;2022-08-19T06:49:11;18.63;;;10.32;;
55391;SDS011;41262;50.922;6.958;2022-08-19T06:51:44;15.95;;;9.25;;
55391;SDS011;41262;50.922;6.958;2022-08-19T06:54:11;20.80;;;11.18;;
55391;SDS011;41262;50.922;6.958;2022-08-19T06:56:37;20.65;;;9.93;;
55391;SDS011;41262;50.922;6.958;2022-08-19T06:59:05;18.13;;;10.20;;
55391;SDS011;41262;50.922;6.958;2022-08-19T07:01:36;18.33;;;10.45;;
55391;SDS011;41262;50.922;6.958;2022-08-19T07:04:07;19.98;;;9.85;;
55391;SDS011;41262;50.922;6.958;2022-08-19T07:06:35;18.23;;;10.43;;
55391;SDS011;41262;50.922;6.958;2022-08-19T07:09:07;22.20;;;10.50;;
55391;SDS011;41262;50.922;6.958;2022-08-19T07:11:35;17.25;;;9.75;;
55391;SDS011;41262;50.922;6.958;2022-08-19T07:14:02;19.75;;;10.40;;
55391;SDS011;41262;50.922;6.958;2022-08-19T07:16:29;16.63;;;10.18;;
55391;SDS011;41262;50.922;6.958;2022-08-19T07:18:56;18.42;;;9.80;;
55391;SDS011;41262;50.922;6.958;2022-08-19T07:21:24;21.33;;;10.02;;
55391;SDS011;41262;50.922;6.958;2022-08-19T07:23:53;21.90;;;10.48;;
55391;SDS011;41262;50.922;6.958;2022-08-19T07:26:22;22.10;;;10.05;;
55391;SDS011;41262;50.922;6.958;2022-08-19T07:28:49;19.55;;;10.13;;
55391;SDS011;41262;50.922;6.958;2022-08-19T07:31:17;17.45;;;10.18;;
55391;SDS011;41262;50.922;6.958;2022-08-19T07:33:46;20.45;;;10.18;;
55391;SDS011;41262;50.922;6.958;2022-08-19T07:36:14;19.20;;;9.15;;
55391;SDS011;41262;50.922;6.958;2022-08-19T07:38:42;17.58;;;9.50;;
55391;SDS011;41262;50.922;6.958;2022-08-19T07:41:11;16.85;;;9.25;;
55391;SDS011;41262;50.922;6.958;2022-08-19T07:43:38;17.52;;;9.38;;
55391;SDS011;41262;50.922;6.958;2022-08-19T07:46:04;16.85;;;8.98;;
55391;SDS011;41262;50.922;6.958;2022-08-19T07:48:31;17.95;;;9.50;;
55391;SDS011;41262;50.922;6.958;2022-08-19T07:50:59;16.65;;;8.93;;
55391;SDS011;41262;50.922;6.958;2022-08-19T07:53:30;19.08;;;9.27;;
55391;SDS011;41262;50.922;6.958;2022-08-19T07:55:57;21.40;;;11.20;;
55391;SDS011;41262;50.922;6.958;2022-08-19T08:00:56;20.65;;;10.13;;
55391;SDS011;41262;50.922;6.958;2022-08-19T08:03:24;19.35;;;9.52;;
55391;SDS011;41262;50.922;6.958;2022-08-19T08:06:11;17.23;;;10.63;;
55391;SDS011;41262;50.922;6.958;2022-08-19T08:08:57;22.17;;;11.05;;
55391;SDS011;41262;50.922;6.958;2022-08-19T08:11:43;19.38;;;10.60;;
55391;SDS011;41262;50.922;6.958;2022-08-19T08:14:16;21.50;;;10.52;;
55391;SDS011;41262;50.922;6.958;2022-08-19T08:16:43;20.92;;;10.43;;
55391;SDS011;41262;50.922;6.958;2022-08-19T08:19:12;19.63;;;11.32;;
55391;SDS011;41262;50.922;6.958;2022-08-19T08:21:41;22.08;;;11.35;;
55391;SDS011;41262;50.922;6.958;2022-08-19T08:24:08;23.10;;;13.18;;
55391;SDS011;41262;50.922;6.958;2022-08-19T08:26:35;22.20;;;12.63;;
55391;SDS011;41262;50.922;6.958;2022-08-19T08:29:01;21.85;;;11.27;;
55391;SDS011;41262;50.922;6.958;2022-08-19T08:31:28;24.75;;;11.98;;
55391;SDS011;41262;50.922;6.958;2022-08-19T08:33:55;23.33;;;11.52;;
55391;SDS011;41262;50.922;6.958;2022-08-19T08:36:21;19.67;;;11.18;;
55391;SDS011;41262;50.922;6.958;2022-08-19T08:38:48;18.80;;;10.98;;
55391;SDS011;41262;50.922;6.958;2022-08-19T08:43:45;21.67;;;11.50;;
55391;SDS011;41262;50.922;6.958;2022-08-19T08:46:13;26.40;;;12.45;;
55391;SDS011;41262;50.922;6.958;2022-08-19T08:51:20;23.67;;;11.05;;
55391;SDS011;41262;50.922;6.958;2022-08-19T08:53:49;27.05;;;13.15;;
55391;SDS011;41262;50.922;6.958;2022-08-19T08:56:17;24.20;;;11.55;;
55391;SDS011;41262;50.922;6.958;2022-08-19T09:01:56;30.48;;;14.75;;
55391;SDS011;41262;50.922;6.958;2022-08-19T09:04:22;27.65;;;12.75;;
55391;SDS011;41262;50.922;6.958;2022-08-19T09:07:34;32.20;;;13.25;;
55391;SDS011;41262;50.922;6.958;2022-08-19T09:09:49;29.88;;;13.60;;
55391;SDS011;41262;50.922;6.958;2022-08-19T09:15:06;26.42;;;12.93;;
55391;SDS011;41262;50.922;6.958;2022-08-19T09:17:34;23.57;;;11.90;;
55391;SDS011;41262;50.922;6.958;2022-08-19T09:20:20;23.60;;;12.05;;
55391;SDS011;41262;50.922;6.958;2022-08-19T09:22:48;21.58;;;10.95;;
55391;SDS011;41262;50.922;6.958;2022-08-19T09:25:16;18.17;;;10.45;;
55391;SDS011;41262;50.922;6.958;2022-08-19T09:27:44;14.10;;;7.72;;
55391;SDS011;41262;50.922;6.958;2022-08-19T09:30:12;16.38;;;9.95;;
55391;SDS011;41262;50.922;6.958;2022-08-19T09:32:39;17.10;;;9.23;;
55391;SDS011;41262;50.922;6.958;2022-08-19T09:35:08;17.52;;;9.00;;
55391;SDS011;41262;50.922;6.958;2022-08-19T09:37:35;17.98;;;10.00;;
55391;SDS011;41262;50.922;6.958;2022-08-19T09:40:02;14.27;;;8.02;;
55391;SDS011;41262;50.922;6.958;2022-08-19T09:42:29;15.98;;;7.90;;
55391;SDS011;41262;50.922;6.958;2022-08-19T09:44:56;17.42;;;9.07;;
55391;SDS011;41262;50.922;6.958;2022-08-19T09:47:23;16.63;;;9.23;;
55391;SDS011;41262;50.922;6.958;2022-08-19T09:49:50;15.55;;;8.98;;
55391;SDS011;41262;50.922;6.958;2022-08-19T09:52:16;17.02;;;9.45;;
55391;SDS011;41262;50.922;6.958;2022-08-19T09:54:44;16.05;;;8.95;;
55391;SDS011;41262;50.922;6.958;2022-08-19T09:57:10;16.77;;;9.20;;
55391;SDS011;41262;50.922;6.958;2022-08-19T09:59:38;18.25;;;8.43;;
55391;SDS011;41262;50.922;6.958;2022-08-19T10:02:05;15.13;;;8.13;;
55391;SDS011;41262;50.922;6.958;2022-08-19T10:04:31;15.75;;;7.85;;
55391;SDS011;41262;50.922;6.958;2022-08-19T10:07:16;14.20;;;7.28;;
55391;SDS011;41262;50.922;6.958;2022-08-19T10:09:43;13.00;;;7.72;;
55391;SDS011;41262;50.922;6.958;2022-08-19T10:12:09;13.85;;;7.18;;
55391;SDS011;41262;50.922;6.958;2022-08-19T10:14:36;15.50;;;8.15;;
55391;SDS011;41262;50.922;6.958;2022-08-19T10:17:03;13.18;;;7.22;;
55391;SDS011;41262;50.922;6.958;2022-08-19T10:19:30;14.15;;;7.45;;
55391;SDS011;41262;50.922;6.958;2022-08-19T10:22:03;13.10;;;7.90;;
55391;SDS011;41262;50.922;6.958;2022-08-19T10:24:30;12.48;;;6.68;;
55391;SDS011;41262;50.922;6.958;2022-08-19T10:26:57;12.15;;;6.00;;
55391;SDS011;41262;50.922;6.958;2022-08-19T10:29:23;13.57;;;7.90;;
55391;SDS011;41262;50.922;6.958;2022-08-19T10:31:50;9.90;;;5.97;;
55391;SDS011;41262;50.922;6.958;2022-08-19T10:34:17;13.32;;;6.95;;
55391;SDS011;41262;50.922;6.958;2022-08-19T10:36:52;9.85;;;5.70;;
55391;SDS011;41262;50.922;6.958;2022-08-19T10:39:19;13.13;;;7.05;;
55391;SDS011;41262;50.922;6.958;2022-08-19T10:41:45;13.70;;;7.63;;
55391;SDS011;41262;50.922;6.958;2022-08-19T10:44:13;11.20;;;7.43;;
55391;SDS011;41262;50.922;6.958;2022-08-19T10:46:40;10.15;;;7.03;;
55391;SDS011;41262;50.922;6.958;2022-08-19T10:49:14;12.18;;;7.65;;
55391;SDS011;41262;50.922;6.958;2022-08-19T10:51:41;11.68;;;7.72;;
55391;SDS011;41262;50.922;6.958;2022-08-19T10:54:26;15.57;;;7.07;;
55391;SDS011;41262;50.922;6.958;2022-08-19T10:57:14;11.60;;;7.10;;
55391;SDS011;41262;50.922;6.958;2022-08-19T10:59:41;11.88;;;7.25;;
55391;SDS011;41262;50.922;6.958;2022-08-19T11:02:10;15.23;;;7.90;;
55391;SDS011;41262;50.922;6.958;2022-08-19T11:04:37;14.40;;;7.88;;
55391;SDS011;41262;50.922;6.958;2022-08-19T11:07:04;11.43;;;6.65;;
55391;SDS011;41262;50.922;6.958;2022-08-19T11:09:31;11.93;;;6.60;;
55391;SDS011;41262;50.922;6.958;2022-08-19T11:11:59;11.60;;;7.32;;
55391;SDS011;41262;50.922;6.958;2022-08-19T11:14:26;12.20;;;8.07;;
55391;SDS011;41262;50.922;6.958;2022-08-19T11:16:56;9.35;;;7.15;;
55391;SDS011;41262;50.922;6.958;2022-08-19T11:19:23;9.88;;;6.18;;
55391;SDS011;41262;50.922;6.958;2022-08-19T11:21:50;10.98;;;7.05;;
55391;SDS011;41262;50.922;6.958;2022-08-19T11:24:19;10.13;;;5.53;;
55391;SDS011;41262;50.922;6.958;2022-08-19T11:26:48;9.73;;;6.13;;
55391;SDS011;41262;50.922;6.958;2022-08-19T11:29:16;7.72;;;5.22;;
55391;SDS011;41262;50.922;6.958;2022-08-19T11:31:44;8.50;;;5.28;;
55391;SDS011;41262;50.922;6.958;2022-08-19T11:34:13;9.23;;;5.72;;
55391;SDS011;41262;50.922;6.958;2022-08-19T11:36:41;9.48;;;6.32;;
55391;SDS011;41262;50.922;6.958;2022-08-19T11:39:09;11.27;;;6.30;;
55391;SDS011;41262;50.922;6.958;2022-08-19T11:41:36;9.13;;;5.80;;
55391;SDS011;41262;50.922;6.958;2022-08-19T11:44:04;10.63;;;5.70;;
55391;SDS011;41262;50.922;6.958;2022-08-19T11:46:34;9.77;;;5.95;;
55391;SDS011;41262;50.922;6.958;2022-08-19T11:49:02;10.57;;;6.13;;
55391;SDS011;41262;50.922;6.958;2022-08-19T11:51:29;7.53;;;5.15;;
55391;SDS011;41262;50.922;6.958;2022-08-19T11:53:57;7.18;;;5.47;;
55391;SDS011;41262;50.922;6.958;2022-08-19T11:56:24;9.63;;;6.10;;
55391;SDS011;41262;50.922;6.958;2022-08-19T11:58:52;7.00;;;4.70;;
55391;SDS011;41262;50.922;6.958;2022-08-19T12:01:20;8.23;;;5.68;;
55391;SDS011;41262;50.922;6.958;2022-08-19T12:03:48;8.63;;;5.50;;
55391;SDS011;41262;50.922;6.958;2022-08-19T12:06:16;9.07;;;5.57;;
55391;SDS011;41262;50.922;6.958;2022-08-19T12:08:43;8.90;;;5.18;;
55391;SDS011;41262;50.922;6.958;2022-08-19T12:11:11;10.52;;;5.45;;
55391;SDS011;41262;50.922;6.958;2022-08-19T12:13:37;10.13;;;5.45;;
55391;SDS011;41262;50.922;6.958;2022-08-19T12:16:08;13.38;;;8.73;;
55391;SDS011;41262;50.922;6.958;2022-08-19T12:18:41;21.00;;;10.95;;
55391;SDS011;41262;50.922;6.958;2022-08-19T12:21:13;11.43;;;6.13;;
55391;SDS011;41262;50.922;6.958;2022-08-19T12:23:40;8.40;;;5.43;;
55391;SDS011;41262;50.922;6.958;2022-08-19T12:26:08;8.48;;;4.90;;
55391;SDS011;41262;50.922;6.958;2022-08-19T12:28:36;8.45;;;4.95;;
55391;SDS011;41262;50.922;6.958;2022-08-19T12:31:03;6.32;;;4.97;;
55391;SDS011;41262;50.922;6.958;2022-08-19T12:33:30;8.00;;;4.63;;
55391;SDS011;41262;50.922;6.958;2022-08-19T12:36:02;8.60;;;5.25;;
55391;SDS011;41262;50.922;6.958;2022-08-19T12:38:30;8.87;;;4.73;;
55391;SDS011;41262;50.922;6.958;2022-08-19T12:40:57;6.78;;;4.13;;
55391;SDS011;41262;50.922;6.958;2022-08-19T12:43:26;7.53;;;4.22;;
55391;SDS011;41262;50.922;6.958;2022-08-19T12:45:53;5.80;;;4.25;;
55391;SDS011;41262;50.922;6.958;2022-08-19T12:48:19;6.35;;;4.68;;
55391;SDS011;41262;50.922;6.958;2022-08-19T12:50:47;5.65;;;3.70;;
55391;SDS011;41262;50.922;6.958;2022-08-19T12:53:14;7.38;;;4.28;;
55391;SDS011;41262;50.922;6.958;2022-08-19T12:55:41;7.75;;;4.35;;
55391;SDS011;41262;50.922;6.958;2022-08-19T12:58:09;8.10;;;4.80;;
55391;SDS011;41262;50.922;6.958;2022-08-19T13:00:36;8.00;;;4.57;;
55391;SDS011;41262;50.922;6.958;2022-08-19T13:03:02;7.00;;;4.25;;
55391;SDS011;41262;50.922;6.958;2022-08-19T13:05:30;9.02;;;4.45;;
55391;SDS011;41262;50.922;6.958;2022-08-19T13:07:57;6.68;;;4.20;;
55391;SDS011;41262;50.922;6.958;2022-08-19T13:10:31;7.38;;;3.72;;
55391;SDS011;41262;50.922;6.958;2022-08-19T13:13:07;7.18;;;4.95;;
55391;SDS011;41262;50.922;6.958;2022-08-19T13:15:34;7.50;;;4.78;;
55391;SDS011;41262;50.922;6.958;2022-08-19T13:18:01;6.82;;;3.83;;
55391;SDS011;41262;50.922;6.958;2022-08-19T13:20:28;7.63;;;4.20;;
55391;SDS011;41262;50.922;6.958;2022-08-19T13:22:55;5.07;;;3.60;;
55391;SDS011;41262;50.922;6.958;2022-08-19T13:25:23;6.70;;;3.60;;
55391;SDS011;41262;50.922;6.958;2022-08-19T13:27:50;5.68;;;3.53;;
55391;SDS011;41262;50.922;6.958;2022-08-19T13:30:18;5.55;;;3.63;;
55391;SDS011;41262;50.922;6.958;2022-08-19T13:33:05;6.97;;;3.70;;
55391;SDS011;41262;50.922;6.958;2022-08-19T13:35:39;5.50;;;3.25;;
55391;SDS011;41262;50.922;6.958;2022-08-19T13:38:06;4.88;;;2.85;;
55391;SDS011;41262;50.922;6.958;2022-08-19T13:40:32;4.85;;;3.28;;
55391;SDS011;41262;50.922;6.958;2022-08-19T13:43:03;5.25;;;3.10;;
55391;SDS011;41262;50.922;6.958;2022-08-19T13:45:31;4.68;;;3.33;;
55391;SDS011;41262;50.922;6.958;2022-08-19T13:48:03;4.95;;;2.85;;
55391;SDS011;41262;50.922;6.958;2022-08-19T13:50:40;6.00;;;2.70;;
55391;SDS011;41262;50.922;6.958;2022-08-19T13:53:08;6.28;;;3.45;;
55391;SDS011;41262;50.922;6.958;2022-08-19T13:55:37;4.25;;;2.67;;
55391;SDS011;41262;50.922;6.958;2022-08-19T13:58:04;4.53;;;2.83;;
55391;SDS011;41262;50.922;6.958;2022-08-19T14:00:33;12.07;;;7.43;;
55391;SDS011;41262;50.922;6.958;2022-08-19T14:03:00;4.95;;;3.67;;
55391;SDS011;41262;50.922;6.958;2022-08-19T14:05:31;4.60;;;2.90;;
55391;SDS011;41262;50.922;6.958;2022-08-19T14:07:59;6.40;;;3.42;;
55391;SDS011;41262;50.922;6.958;2022-08-19T14:10:26;4.45;;;3.13;;
55391;SDS011;41262;50.922;6.958;2022-08-19T14:12:54;5.32;;;3.25;;
55391;SDS011;41262;50.922;6.958;2022-08-19T14:15:22;6.00;;;3.35;;
55391;SDS011;41262;50.922;6.958;2022-08-19T14:17:52;3.60;;;2.28;;
55391;SDS011;41262;50.922;6.958;2022-08-19T14:20:19;4.10;;;2.58;;
55391;SDS011;41262;50.922;6.958;2022-08-19T14:22:46;6.57;;;3.08;;
55391;SDS011;41262;50.922;6.958;2022-08-19T14:25:15;5.28;;;3.35;;
55391;SDS011;41262;50.922;6.958;2022-08-19T14:27:42;4.65;;;3.38;;
55391;SDS011;41262;50.922;6.958;2022-08-19T14:30:10;5.75;;;3.78;;
55391;SDS011;41262;50.922;6.958;2022-08-19T14:32:38;6.43;;;3.25;;
55391;SDS011;41262;50.922;6.958;2022-08-19T14:35:06;4.80;;;3.55;;
55391;SDS011;41262;50.922;6.958;2022-08-19T14:37:36;6.43;;;3.25;;
55391;SDS011;41262;50.922;6.958;2022-08-19T14:40:04;5.85;;;3.47;;
55391;SDS011;41262;50.922;6.958;2022-08-19T14:42:32;4.43;;;2.92;;
55391;SDS011;41262;50.922;6.958;2022-08-19T14:45:02;4.68;;;2.97;;
55391;SDS011;41262;50.922;6.958;2022-08-19T14:47:31;4.18;;;2.80;;
55391;SDS011;41262;50.922;6.958;2022-08-19T14:49:59;3.78;;;2.58;;
55391;SDS011;41262;50.922;6.958;2022-08-19T14:52:26;4.55;;;2.47;;
55391;SDS011;41262;50.922;6.958;2022-08-19T14:54:54;4.70;;;2.80;;
55391;SDS011;41262;50.922;6.958;2022-08-19T14:57:21;4.88;;;2.85;;
55391;SDS011;41262;50.922;6.958;2022-08-19T14:59:48;5.07;;;2.80;;